createdAt,value
2019-02-18T00:02:20.193Z,42.81
2019-02-18T00:08:36.876Z,44.95
2019-02-18T00:11:15.647Z,45.40
2019-02-18T00:13:54.288Z,45.43
2019-02-18T00:16:32.724Z,43.62
2019-02-18T00:19:06.652Z,43.36
2019-02-18T00:21:51.672Z,44.51
2019-02-18T00:24:26.285Z,44.40
2019-02-18T00:27:10.014Z,45.05
2019-02-18T00:29:57.035Z,44.56
2019-02-18T00:40:45.711Z,41.24
2019-02-18T01:05:42.837Z,43.11
2019-02-18T01:08:26.161Z,42.43
2019-02-18T01:22:36.773Z,38.49
2019-02-18T01:40:58.576Z,37.95
2019-02-18T01:43:33.068Z,38.56
2019-02-18T01:46:07.282Z,38.14
2019-02-18T01:48:41.779Z,37.60
2019-02-18T01:51:15.705Z,38.75
2019-02-18T01:53:49.567Z,40.04
2019-02-18T01:56:23.849Z,40.32
2019-02-18T01:58:57.706Z,41.69
2019-02-18T02:01:32.069Z,41.69
2019-02-18T02:04:08.106Z,41.28
2019-02-18T02:06:42.693Z,40.81
2019-02-18T02:09:16.941Z,39.37
2019-02-18T02:11:51.188Z,39.20
2019-02-18T02:14:26.017Z,37.65
2019-02-18T02:17:01.145Z,38.74
2019-02-18T02:19:35.884Z,37.87
2019-02-18T02:22:10.096Z,35.83
2019-02-18T02:24:45.976Z,35.46
2019-02-18T02:27:20.474Z,35.05
2019-02-18T02:29:54.385Z,36.49
2019-02-18T02:32:28.540Z,35.28
2019-02-18T02:35:02.615Z,35.62
2019-02-18T02:37:36.570Z,34.40
2019-02-18T02:40:12.352Z,35.09
2019-02-18T02:42:47.827Z,35.23
2019-02-18T02:45:21.467Z,33.90
2019-02-18T02:47:56.472Z,34.08
2019-02-18T02:50:30.298Z,32.69
2019-02-18T02:53:04.537Z,34.37
2019-02-18T02:55:38.516Z,35.87
2019-02-18T02:58:13.439Z,34.62
2019-02-18T03:00:48.578Z,35.69
2019-02-18T03:03:22.212Z,33.90
2019-02-18T03:05:56.222Z,34.98
2019-02-18T03:08:30.251Z,33.42
2019-02-18T03:11:04.773Z,33.71
2019-02-18T03:13:38.746Z,33.04
2019-02-18T03:16:13.303Z,33.83
2019-02-18T03:18:48.937Z,33.80
2019-02-18T03:21:22.732Z,34.11
2019-02-18T03:24:00.822Z,34.37
2019-02-18T03:26:32.892Z,33.30
2019-02-18T03:29:21.332Z,32.93
2019-02-18T03:31:55.739Z,34.62
2019-02-18T03:34:32.745Z,33.82
2019-02-18T03:37:06.657Z,31.11
2019-02-18T03:39:40.857Z,31.11
2019-02-18T03:42:14.699Z,31.26
2019-02-18T03:44:48.384Z,30.56
2019-02-18T03:47:23.558Z,31.85
2019-02-18T03:49:57.589Z,29.71
2019-02-18T03:52:31.333Z,29.11
2019-02-18T03:55:05.232Z,29.80
2019-02-18T03:57:40.170Z,29.70
2019-02-18T04:00:18.277Z,30.66
2019-02-18T04:02:51.982Z,30.75
2019-02-18T04:05:27.431Z,31.21
2019-02-18T04:08:01.498Z,29.24
2019-02-18T04:10:35.862Z,28.43
2019-02-18T04:13:11.560Z,28.48
2019-02-18T04:15:48.103Z,28.04
2019-02-18T04:18:23.029Z,29.46
2019-02-18T04:20:56.820Z,30.63
2019-02-18T04:23:30.633Z,29.80
2019-02-18T04:26:04.708Z,28.73
2019-02-18T04:28:38.494Z,27.99
2019-02-18T04:31:12.024Z,28.15
2019-02-18T04:33:48.934Z,27.67
2019-02-18T04:36:23.757Z,28.87
2019-02-18T04:38:59.177Z,29.54
2019-02-18T04:41:52.402Z,27.41
2019-02-18T04:44:28.478Z,29.43
2019-02-18T04:47:01.169Z,29.15
2019-02-18T04:49:34.996Z,29.63
2019-02-18T04:52:11.911Z,29.66
2019-02-18T04:54:45.204Z,28.17
2019-02-18T04:57:20.884Z,28.13
2019-02-18T04:59:54.703Z,29.57
2019-02-18T05:02:30.055Z,29.02
2019-02-18T05:05:04.088Z,29.18
2019-02-18T05:07:39.012Z,28.88
2019-02-18T05:10:14.064Z,28.80
2019-02-18T05:12:47.900Z,29.82
2019-02-18T05:15:21.896Z,30.11
2019-02-18T05:17:57.743Z,29.23
2019-02-18T05:20:31.628Z,28.24
2019-02-18T05:23:05.747Z,29.36
2019-02-18T05:25:40.111Z,28.06
2019-02-18T05:28:14.761Z,28.30
2019-02-18T05:30:48.672Z,30.28
2019-02-18T05:33:22.535Z,28.59
2019-02-18T05:35:58.830Z,27.14
2019-02-18T05:38:33.248Z,27.74
2019-02-18T05:41:07.347Z,30.28
2019-02-18T05:43:41.674Z,29.27
2019-02-18T05:46:15.834Z,28.34
2019-02-18T05:48:50.738Z,28.92
2019-02-18T05:51:25.098Z,28.28
2019-02-18T05:54:07.555Z,28.51
2019-02-18T05:56:41.803Z,28.22
2019-02-18T05:59:15.878Z,28.45
2019-02-18T06:01:50.138Z,29.29
2019-02-18T06:04:26.141Z,27.98
2019-02-18T06:07:00.321Z,27.04
2019-02-18T06:09:35.667Z,27.03
2019-02-18T06:12:09.656Z,27.04
2019-02-18T06:14:43.715Z,27.98
2019-02-18T06:17:37.147Z,29.85
2019-02-18T06:20:12.552Z,25.35
2019-02-18T06:22:50.658Z,27.10
2019-02-18T06:25:25.019Z,26.22
2019-02-18T06:27:59.711Z,26.12
2019-02-18T06:30:36.101Z,27.80
2019-02-18T06:33:10.688Z,27.32
2019-02-18T06:35:50.180Z,27.89
2019-02-18T06:38:23.622Z,27.87
2019-02-18T06:41:04.180Z,27.00
2019-02-18T06:43:58.626Z,27.43
2019-02-18T06:53:29.159Z,26.29
2019-02-18T06:56:05.514Z,26.65
2019-02-18T06:58:40.561Z,27.67
2019-02-18T07:01:16.905Z,26.18
2019-02-18T07:03:49.527Z,27.05
2019-02-18T07:06:25.972Z,26.63
2019-02-18T07:09:00.151Z,24.83
2019-02-18T07:11:36.145Z,26.03
2019-02-18T07:14:10.459Z,27.27
2019-02-18T07:16:49.616Z,25.67
2019-02-18T07:19:45.230Z,27.65
2019-02-18T07:22:19.589Z,24.43
2019-02-18T07:24:53.508Z,26.13
2019-02-18T07:27:27.726Z,25.65
2019-02-18T07:30:02.161Z,26.07
2019-02-18T07:32:50.967Z,25.66
2019-02-18T07:35:38.639Z,26.16
2019-02-18T07:38:33.154Z,25.40
2019-02-18T07:41:17.919Z,24.63
2019-02-18T07:43:55.658Z,25.02
2019-02-18T07:46:36.713Z,26.03
2019-02-18T07:52:37.802Z,25.49
2019-02-18T07:58:16.392Z,28.27
2019-02-18T08:03:49.299Z,27.38
2019-02-18T08:06:32.191Z,26.60
2019-02-18T08:09:11.895Z,26.46
2019-02-18T08:11:47.784Z,27.91
2019-02-18T08:14:33.969Z,24.57
2019-02-18T08:17:10.095Z,25.56
2019-02-18T08:19:46.070Z,24.95
2019-02-18T08:22:26.305Z,28.38
2019-02-18T08:25:00.872Z,26.48
2019-02-18T08:30:28.835Z,27.02
2019-02-18T08:33:07.730Z,28.87
2019-02-18T08:35:48.274Z,28.25
2019-02-18T08:38:28.555Z,27.92
2019-02-18T08:41:15.883Z,29.50
2019-02-18T08:43:50.647Z,27.86
2019-02-18T08:46:33.726Z,27.92
2019-02-18T08:55:17.792Z,27.74
2019-02-18T08:58:05.820Z,28.03
2019-02-18T09:03:50.819Z,28.01
2019-02-18T09:06:30.355Z,28.51
2019-02-18T09:09:23.577Z,29.22
2019-02-18T09:12:01.654Z,29.33
2019-02-18T09:14:37.273Z,30.01
2019-02-18T09:17:14.875Z,30.22
2019-02-18T09:22:48.790Z,30.95
2019-02-18T09:25:25.637Z,28.37
2019-02-18T09:28:18.860Z,29.11
2019-02-18T09:30:45.203Z,30.80
2019-02-18T09:33:21.103Z,31.33
2019-02-18T09:36:04.252Z,31.56
2019-02-18T09:38:50.354Z,29.56
2019-02-18T09:41:26.237Z,31.15
2019-02-18T09:44:02.873Z,30.22
2019-02-18T09:46:45.539Z,30.16
2019-02-18T09:49:22.325Z,29.07
2019-02-18T09:52:03.087Z,29.16
2019-02-18T09:54:44.480Z,27.82
2019-02-18T09:57:23.161Z,27.67
2019-02-18T10:00:07.618Z,29.24
2019-02-18T10:02:47.330Z,29.39
2019-02-18T10:05:24.516Z,29.54
2019-02-18T10:08:04.464Z,30.75
2019-02-18T10:10:55.138Z,31.70
2019-02-18T10:13:28.460Z,29.70
2019-02-18T10:16:07.769Z,30.49
2019-02-18T10:18:57.181Z,29.25
2019-02-18T10:21:32.099Z,29.43
2019-02-18T10:24:07.360Z,28.98
2019-02-18T10:26:46.165Z,27.55
2019-02-18T10:35:15.203Z,31.18
2019-02-18T10:40:46.720Z,30.13
2019-02-18T10:43:32.230Z,30.58
2019-02-18T10:46:05.327Z,29.86
2019-02-18T10:48:47.170Z,30.07
2019-02-18T10:51:24.629Z,30.42
2019-02-18T10:54:12.601Z,31.71
2019-02-18T10:56:56.029Z,31.52
2019-02-18T10:59:41.530Z,31.67
2019-02-18T11:02:19.250Z,30.29
2019-02-18T11:05:01.115Z,31.94
2019-02-18T11:07:38.840Z,31.77
2019-02-18T11:10:19.801Z,30.44
2019-02-18T11:15:56.375Z,33.73
2019-02-18T11:18:36.125Z,33.02
2019-02-18T11:21:12.220Z,31.42
2019-02-18T11:23:48.446Z,32.90
2019-02-18T11:26:31.702Z,33.91
2019-02-18T11:29:10.435Z,33.13
2019-02-18T11:32:06.615Z,33.12
2019-02-18T11:34:41.158Z,34.29
2019-02-18T11:37:19.039Z,32.67
2019-02-18T11:39:54.155Z,32.28
2019-02-18T11:42:37.522Z,31.85
2019-02-18T11:45:15.103Z,33.03
2019-02-18T11:47:51.453Z,31.58
2019-02-18T11:50:30.551Z,30.96
2019-02-18T11:53:14.140Z,31.97
2019-02-18T11:56:12.237Z,32.92
2019-02-18T11:58:55.480Z,33.56
2019-02-18T12:01:39.440Z,33.86
2019-02-18T12:07:10.083Z,33.83
2019-02-18T12:12:39.556Z,34.15
2019-02-18T12:15:21.450Z,34.77
2019-02-18T12:18:01.388Z,34.65
2019-02-18T12:20:38.583Z,35.59
2019-02-18T12:23:18.692Z,33.60
2019-02-18T12:25:54.797Z,32.55
2019-02-18T12:28:33.099Z,35.61
2019-02-18T12:31:12.983Z,32.40
2019-02-18T12:34:05.068Z,32.30
2019-02-18T12:36:41.363Z,33.19
2019-02-18T12:39:22.576Z,34.59
2019-02-18T12:41:57.066Z,34.58
2019-02-18T12:44:36.179Z,33.44
2019-02-18T12:47:28.873Z,35.09
2019-02-18T12:50:16.662Z,32.75
2019-02-18T12:52:56.223Z,33.55
2019-02-18T12:55:36.219Z,35.04
2019-02-18T12:58:30.063Z,33.23
2019-02-18T13:01:05.775Z,34.43
2019-02-18T13:03:59.053Z,32.37
2019-02-18T13:06:39.091Z,31.91
2019-02-18T13:09:20.883Z,31.78
2019-02-18T13:11:59.704Z,35.04
2019-02-18T13:14:36.587Z,34.78
2019-02-18T13:17:14.390Z,34.04
2019-02-18T13:19:51.941Z,34.20
2019-02-18T13:22:30.062Z,34.46
2019-02-18T13:25:09.323Z,33.54
2019-02-18T13:27:45.887Z,33.79
2019-02-18T13:30:23.725Z,35.45
2019-02-18T13:33:02.541Z,35.51
2019-02-18T13:35:38.430Z,35.04
2019-02-18T13:38:16.482Z,34.73
2019-02-18T13:40:54.558Z,34.38
2019-02-18T13:43:31.185Z,35.13
2019-02-18T13:46:10.441Z,33.78
2019-02-18T13:48:46.375Z,35.49
2019-02-18T13:51:24.246Z,35.65
2019-02-18T13:54:06.744Z,36.15
2019-02-18T13:56:44.799Z,34.50
2019-02-18T13:59:22.781Z,34.38
2019-02-18T14:01:59.041Z,34.71
2019-02-18T14:04:36.789Z,36.58
2019-02-18T14:07:14.477Z,35.56
2019-02-18T14:10:02.778Z,37.11
2019-02-18T14:12:42.226Z,36.95
2019-02-18T14:15:17.109Z,35.74
2019-02-18T14:17:59.963Z,36.61
2019-02-18T14:20:43.747Z,37.12
2019-02-18T14:23:20.527Z,35.97
2019-02-18T14:26:05.546Z,36.76
2019-02-18T14:28:41.367Z,35.62
2019-02-18T14:31:23.960Z,36.06
2019-02-18T14:34:07.070Z,36.14
2019-02-18T14:36:50.605Z,37.09
2019-02-18T14:39:26.806Z,35.60
2019-02-18T14:42:24.820Z,36.09
2019-02-18T14:45:02.452Z,36.28
2019-02-18T14:47:41.794Z,35.71
2019-02-18T14:50:19.412Z,37.45
2019-02-18T14:52:56.805Z,36.37
2019-02-18T14:55:35.728Z,36.32
2019-02-18T14:58:11.928Z,35.10
2019-02-18T15:00:49.731Z,35.97
2019-02-18T15:03:27.047Z,36.44
2019-02-18T15:06:07.177Z,37.18
2019-02-18T15:08:49.457Z,35.21
2019-02-18T15:11:26.619Z,36.39
2019-02-18T15:14:02.396Z,35.88
2019-02-18T15:16:40.340Z,35.45
2019-02-18T15:19:15.890Z,36.52
2019-02-18T15:21:53.385Z,35.67
2019-02-18T15:24:31.511Z,36.86
2019-02-18T15:27:04.576Z,36.97
2019-02-18T15:29:39.295Z,36.78
2019-02-18T15:32:14.066Z,37.52
2019-02-18T15:34:49.133Z,36.72
2019-02-18T15:37:29.720Z,37.65
2019-02-18T15:40:04.542Z,39.32
2019-02-18T15:42:42.289Z,36.35
2019-02-18T15:45:16.156Z,37.67
2019-02-18T15:47:50.935Z,35.77
2019-02-18T15:50:26.169Z,37.59
2019-02-18T15:53:02.361Z,36.27
2019-02-18T15:55:37.195Z,35.11
2019-02-18T15:58:13.936Z,38.97
2019-02-18T16:00:49.495Z,38.02
2019-02-18T16:03:27.123Z,36.05
2019-02-18T16:06:00.329Z,37.39
2019-02-18T16:08:35.753Z,38.57
2019-02-18T16:11:10.559Z,35.82
2019-02-18T16:13:45.639Z,37.64
2019-02-18T16:16:26.924Z,38.52
2019-02-18T16:19:02.374Z,38.57
2019-02-18T16:21:40.229Z,35.83
2019-02-18T16:24:20.026Z,37.20
2019-02-18T16:26:52.031Z,37.05
2019-02-18T16:29:27.331Z,36.95
2019-02-18T16:32:04.813Z,37.17
2019-02-18T16:34:39.851Z,35.57
2019-02-18T16:37:14.968Z,36.35
2019-02-18T16:39:49.693Z,35.63
2019-02-18T16:42:25.126Z,37.11
2019-02-18T16:45:00.157Z,35.83
2019-02-18T16:47:34.817Z,38.08
2019-02-18T16:50:09.912Z,36.51
2019-02-18T16:53:03.838Z,35.82
2019-02-18T16:55:38.866Z,37.47
2019-02-18T16:58:13.602Z,35.61
2019-02-18T17:00:55.810Z,36.13
2019-02-18T17:03:26.811Z,36.48
2019-02-18T17:06:01.983Z,35.39
2019-02-18T17:08:36.818Z,36.20
2019-02-18T17:11:11.853Z,35.52
2019-02-18T17:13:46.849Z,34.01
2019-02-18T17:16:22.015Z,34.74
2019-02-18T17:19:02.264Z,33.41
2019-02-18T17:21:35.431Z,33.99
2019-02-18T17:24:28.695Z,34.39
2019-02-18T17:27:05.153Z,33.71
2019-02-18T17:29:40.042Z,34.67
2019-02-18T17:32:14.480Z,36.46
2019-02-18T17:34:49.454Z,35.56
2019-02-18T17:37:23.854Z,35.56
2019-02-18T17:40:00.317Z,34.65
2019-02-18T17:42:37.240Z,35.38
2019-02-18T17:45:16.157Z,35.45
2019-02-18T17:47:50.558Z,34.68
2019-02-18T17:50:26.755Z,34.42
2019-02-18T17:53:03.619Z,35.17
2019-02-18T17:55:37.979Z,36.62
2019-02-18T17:58:12.863Z,35.29
2019-02-18T18:00:47.449Z,36.43
2019-02-18T18:03:25.062Z,34.86
2019-02-18T18:05:57.406Z,34.37
2019-02-18T18:08:32.036Z,34.82
2019-02-18T18:11:08.307Z,35.44
2019-02-18T18:13:43.439Z,37.05
2019-02-18T18:16:28.068Z,35.12
2019-02-18T18:19:20.315Z,36.63
2019-02-18T18:22:00.673Z,35.59
2019-02-18T18:24:34.154Z,34.88
2019-02-18T18:27:10.166Z,37.93
2019-02-18T18:29:47.777Z,36.03
2019-02-18T18:32:25.822Z,34.92
2019-02-18T18:34:57.947Z,35.25
2019-02-18T18:37:32.578Z,36.14
2019-02-18T18:40:08.433Z,35.03
2019-02-18T18:42:47.320Z,36.93
2019-02-18T18:45:23.142Z,36.80
2019-02-18T18:48:00.272Z,35.54
2019-02-18T18:50:35.700Z,37.91
2019-02-18T18:53:11.422Z,37.91
2019-02-18T18:55:46.570Z,37.69
2019-02-18T18:58:27.547Z,36.45
2019-02-18T19:01:02.148Z,36.55
2019-02-18T19:03:38.189Z,37.67
2019-02-18T19:06:13.556Z,40.02
2019-02-18T19:08:48.811Z,37.81
2019-02-18T19:11:23.582Z,39.27
2019-02-18T19:13:58.096Z,38.32
2019-02-18T19:16:32.738Z,37.75
2019-02-18T19:19:10.151Z,38.34
2019-02-18T19:21:46.856Z,37.49
2019-02-18T19:24:27.923Z,37.98
2019-02-18T19:27:20.696Z,39.02
2019-02-18T19:29:55.402Z,37.50
2019-02-18T19:32:30.192Z,39.79
2019-02-18T19:35:04.975Z,39.96
2019-02-18T19:37:39.575Z,37.96
2019-02-18T19:40:16.255Z,38.97
2019-02-18T19:42:53.378Z,39.10
2019-02-18T19:45:30.565Z,37.98
2019-02-18T19:48:05.189Z,38.72
2019-02-18T19:50:39.593Z,39.33
2019-02-18T19:53:14.463Z,40.47
2019-02-18T19:55:53.501Z,39.97
2019-02-18T19:58:28.627Z,38.06
2019-02-18T20:01:05.465Z,40.78
2019-02-18T20:03:44.005Z,41.37
2019-02-18T20:06:23.929Z,40.80
2019-02-18T20:08:59.166Z,37.99
2019-02-18T20:11:37.719Z,39.55
2019-02-18T20:14:13.530Z,39.78
2019-02-18T20:16:52.002Z,37.40
2019-02-18T20:19:26.564Z,37.16
2019-02-18T20:22:02.291Z,37.29
2019-02-18T20:24:37.403Z,38.45
2019-02-18T20:27:11.879Z,38.95
2019-02-18T20:29:46.453Z,37.97
2019-02-18T20:32:21.062Z,40.17
2019-02-18T20:34:59.040Z,39.23
2019-02-18T20:37:34.844Z,39.49
2019-02-18T20:40:10.002Z,38.91
2019-02-18T20:43:04.373Z,38.53
2019-02-18T20:45:39.002Z,39.95
2019-02-18T20:48:16.986Z,40.35
2019-02-18T20:50:51.746Z,39.17
2019-02-18T20:53:29.726Z,40.29
2019-02-18T20:56:04.575Z,39.06
2019-02-18T20:58:39.403Z,38.33
2019-02-18T21:04:16.053Z,39.90
2019-02-18T21:06:56.568Z,40.92
2019-02-18T21:09:30.763Z,41.67
2019-02-18T21:12:05.070Z,42.48
2019-02-18T21:14:39.770Z,40.77
2019-02-18T21:17:14.370Z,42.11
2019-02-18T21:19:48.672Z,42.48
2019-02-18T21:22:25.340Z,42.16
2019-02-18T21:25:02.294Z,44.43
2019-02-18T21:27:36.534Z,42.13
2019-02-18T21:30:13.404Z,44.12
2019-02-18T21:32:47.961Z,43.46
2019-02-18T21:35:22.459Z,44.24
2019-02-18T21:37:56.603Z,42.83
2019-02-18T21:40:30.897Z,45.01
2019-02-18T21:43:05.333Z,44.30
2019-02-18T21:45:39.760Z,42.92
2019-02-18T21:48:14.342Z,43.80
2019-02-18T21:50:48.877Z,43.97
2019-02-18T21:53:23.462Z,44.49
2019-02-18T21:55:59.843Z,45.15
2019-02-18T21:58:34.314Z,44.50
2019-02-18T22:01:08.989Z,46.11
2019-02-18T22:03:43.919Z,47.31
2019-02-18T22:06:18.947Z,48.27
2019-02-18T22:08:53.231Z,47.64
2019-02-18T22:11:29.029Z,48.74
2019-02-18T22:14:04.163Z,47.65
2019-02-18T22:16:38.765Z,45.09
2019-02-18T22:19:15.591Z,46.44
2019-02-18T22:21:49.700Z,46.24
2019-02-18T22:24:26.507Z,45.57
2019-02-18T22:27:15.928Z,47.42
2019-02-18T22:29:50.420Z,47.09
2019-02-18T22:32:25.717Z,46.30
2019-02-18T22:35:01.859Z,45.80
2019-02-18T22:37:35.998Z,45.03
2019-02-18T22:40:11.860Z,43.34
2019-02-18T22:42:45.974Z,46.10
2019-02-18T22:45:20.209Z,45.04
2019-02-18T22:47:54.322Z,44.32
2019-02-18T22:50:28.286Z,44.30
2019-02-18T22:53:02.599Z,46.23
2019-02-18T22:55:36.486Z,45.87
2019-02-18T22:58:10.129Z,45.34
2019-02-18T23:00:46.652Z,44.15
2019-02-18T23:03:20.443Z,46.02
2019-02-18T23:05:54.245Z,46.29
2019-02-18T23:08:27.608Z,46.37
2019-02-18T23:11:05.392Z,44.67
2019-02-18T23:13:39.029Z,45.52
2019-02-18T23:16:12.920Z,44.59
2019-02-18T23:18:48.042Z,45.99
2019-02-18T23:21:24.301Z,44.03
2019-02-18T23:23:58.212Z,45.63
2019-02-18T23:26:32.480Z,45.56
2019-02-18T23:29:06.297Z,46.90
2019-02-18T23:31:41.947Z,44.74
2019-02-18T23:34:15.882Z,45.16
2019-02-18T23:36:51.874Z,45.23
2019-02-18T23:39:25.867Z,44.11
2019-02-18T23:41:59.443Z,42.96
2019-02-18T23:44:33.085Z,44.74
2019-02-18T23:47:09.838Z,43.26
2019-02-18T23:49:43.490Z,45.12
2019-02-18T23:52:17.337Z,43.81
2019-02-18T23:54:52.746Z,42.00
2019-02-18T23:57:26.366Z,43.91
